Time;durP1;ratioP1;P1;durP2;ratioP2;P2;SDS_P1;SDS_P2;PMS_P1;PMS_P2;Temp;Humidity;BMP_temperature;BMP_pressure;BME280_temperature;BME280_humidity;BME280_pressure;Samples;Min_cycle;Max_cycle;Signal;HPM_P1;HPM_P2
2021/08/31 00:01:50;;;;;;;26.77;15.17;;;14.80;99.90;;;;;;6697935;88;20263;-74
2021/08/31 00:11:51;;;;;;;28.65;15.60;;;14.70;99.90;;;;;;6698129;88;20503;-74
2021/08/31 00:21:51;;;;;;;28.98;16.23;;;14.60;99.90;;;;;;6697208;88;20205;-74
2021/08/31 00:31:52;;;;;;;28.53;15.73;;;14.60;99.90;;;;;;6696813;88;20218;-74
2021/08/31 00:41:53;;;;;;;30.40;17.12;;;14.50;99.90;;;;;;6697458;88;20694;-74
2021/08/31 00:51:56;;;;;;;29.30;17.42;;;14.40;99.90;;;;;;6679651;88;20183;-75
2021/08/31 01:01:58;;;;;;;32.83;19.02;;;14.40;99.90;;;;;;6696486;88;20179;-73
2021/08/31 01:12:00;;;;;;;30.23;17.75;;;14.30;99.90;;;;;;6696478;88;20206;-74
2021/08/31 01:22:05;;;;;;;37.45;20.05;;;14.20;99.90;;;;;;6696840;88;20654;-75
2021/08/31 01:32:06;;;;;;;34.70;19.53;;;14.20;99.90;;;;;;6696851;88;20240;-74
2021/08/31 01:42:07;;;;;;;36.45;19.60;;;14.20;99.90;;;;;;6696362;88;20273;-74
2021/08/31 01:52:08;;;;;;;34.92;18.85;;;14.10;99.90;;;;;;6696214;88;20199;-74
2021/08/31 02:02:09;;;;;;;37.63;19.62;;;14.10;99.90;;;;;;6696157;88;20186;-74
2021/08/31 02:12:09;;;;;;;33.70;19.35;;;14.10;99.90;;;;;;6695137;88;20585;-74
2021/08/31 02:22:10;;;;;;;31.67;18.70;;;14.10;99.90;;;;;;6695726;88;20619;-74
2021/08/31 02:32:10;;;;;;;31.85;17.58;;;14.20;99.90;;;;;;6695557;88;20255;-75
2021/08/31 02:42:11;;;;;;;33.08;18.30;;;14.20;99.90;;;;;;6695956;88;20320;-74
2021/08/31 02:52:12;;;;;;;33.95;19.02;;;14.20;99.90;;;;;;6696982;88;20650;-74
2021/08/31 03:02:12;;;;;;;33.10;19.10;;;14.00;99.90;;;;;;6701695;88;20315;-76
2021/08/31 03:12:14;;;;;;;32.47;19.08;;;13.90;99.90;;;;;;6701418;88;20619;-74
2021/08/31 03:22:15;;;;;;;34.20;19.17;;;14.00;99.90;;;;;;6701043;88;20317;-74
2021/08/31 03:32:15;;;;;;;38.45;20.65;;;14.00;99.90;;;;;;6700629;88;20201;-74
2021/08/31 03:42:16;;;;;;;42.17;22.30;;;13.90;99.90;;;;;;6700561;88;20190;-73
2021/08/31 03:52:16;;;;;;;41.70;22.55;;;14.00;99.90;;;;;;6700337;88;20186;-74
2021/08/31 04:02:18;;;;;;;43.17;24.02;;;14.10;99.90;;;;;;6699844;88;20187;-74
2021/08/31 04:12:18;;;;;;;46.80;26.08;;;14.10;99.90;;;;;;6697232;88;20626;-74
2021/08/31 04:22:19;;;;;;;44.35;25.48;;;14.00;99.90;;;;;;6697199;88;20210;-73
2021/08/31 04:32:20;;;;;;;44.33;24.33;;;14.00;99.90;;;;;;6697358;88;20183;-73
2021/08/31 04:42:20;;;;;;;49.58;25.60;;;13.90;99.90;;;;;;6697645;88;20939;-73
2021/08/31 04:52:21;;;;;;;53.10;27.40;;;13.80;99.90;;;;;;6697286;88;20609;-74
2021/08/31 05:02:21;;;;;;;50.58;26.48;;;13.80;99.90;;;;;;6696581;88;20253;-74
2021/08/31 05:12:22;;;;;;;51.55;27.65;;;13.70;99.90;;;;;;6696673;88;20187;-74
2021/08/31 05:22:23;;;;;;;48.83;26.85;;;13.90;99.90;;;;;;6696411;88;20271;-74
2021/08/31 05:32:24;;;;;;;53.22;27.77;;;13.90;99.90;;;;;;6696396;88;20217;-74
2021/08/31 05:42:25;;;;;;;58.80;30.50;;;13.80;99.90;;;;;;6696438;88;20211;-74
2021/08/31 05:52:25;;;;;;;63.10;32.17;;;13.90;99.90;;;;;;6694882;88;20611;-73
2021/08/31 06:02:26;;;;;;;68.47;31.95;;;13.90;99.90;;;;;;6693798;88;20179;-73
2021/08/31 06:12:26;;;;;;;59.63;32.13;;;14.00;99.90;;;;;;6694574;88;20290;-73
2021/08/31 06:22:27;;;;;;;69.37;33.47;;;14.40;99.90;;;;;;6695454;88;20314;-74
2021/08/31 06:32:27;;;;;;;63.97;32.72;;;14.60;99.90;;;;;;6693206;88;20191;-74
2021/08/31 06:42:28;;;;;;;62.40;32.83;;;15.00;99.90;;;;;;6694310;88;20181;-74
2021/08/31 06:52:28;;;;;;;64.37;32.08;;;15.20;99.90;;;;;;6692787;88;20446;-73
2021/08/31 07:02:29;;;;;;;66.72;33.42;;;15.30;99.90;;;;;;6691268;88;20220;-74
2021/08/31 07:12:29;;;;;;;69.50;33.22;;;15.30;99.90;;;;;;6694335;88;20194;-74
2021/08/31 07:22:30;;;;;;;74.97;33.85;;;15.10;99.90;;;;;;6693927;88;20638;-74
2021/08/31 07:32:31;;;;;;;73.28;31.27;;;15.10;99.90;;;;;;6692965;88;20313;-74
2021/08/31 07:42:32;;;;;;;62.75;29.85;;;15.20;99.90;;;;;;6694630;88;20236;-74
2021/08/31 07:52:34;;;;;;;57.47;28.30;;;15.40;99.90;;;;;;6696568;88;20199;-74
2021/08/31 08:02:35;;;;;;;57.78;27.95;;;15.70;99.90;;;;;;6693344;88;20337;-73
2021/08/31 08:12:36;;;;;;;69.57;30.83;;;15.70;99.90;;;;;;6695440;88;20345;-74
2021/08/31 08:22:37;;;;;;;74.30;33.53;;;15.60;99.90;;;;;;6695856;88;20208;-74
2021/08/31 08:32:38;;;;;;;73.55;31.80;;;15.70;99.90;;;;;;6695819;88;20334;-73
2021/08/31 08:42:39;;;;;;;76.57;33.67;;;15.80;99.90;;;;;;6695186;88;20229;-73
2021/08/31 08:52:40;;;;;;;82.03;32.53;;;16.10;99.90;;;;;;6689863;88;20206;-73
2021/08/31 09:02:44;;;;;;;89.78;33.53;;;16.50;99.90;;;;;;6695679;88;20251;-73
2021/08/31 09:12:50;;;;;;;82.28;30.77;;;16.60;99.90;;;;;;6696782;88;20207;-73
2021/08/31 09:22:52;;;;;;;79.05;31.12;;;16.70;99.90;;;;;;6694836;88;20183;-73
2021/08/31 09:33:08;;;;;;;82.88;31.33;;;17.10;99.90;;;;;;6696602;88;20216;-74
2021/08/31 09:43:17;;;;;;;83.30;32.60;;;16.90;99.90;;;;;;6691294;88;20223;-73
2021/08/31 09:53:19;;;;;;;66.62;30.77;;;16.80;99.90;;;;;;6694243;88;20229;-73
2021/08/31 10:03:22;;;;;;;69.95;31.42;;;16.90;99.90;;;;;;6691837;88;20289;-73
2021/08/31 10:13:24;;;;;;;73.40;30.90;;;17.00;99.90;;;;;;6694416;88;20676;-73
2021/08/31 10:23:34;;;;;;;71.35;31.17;;;16.70;99.90;;;;;;6694587;88;20209;-74
2021/08/31 10:33:38;;;;;;;70.97;32.60;;;17.20;99.90;;;;;;6694215;88;20174;-73
2021/08/31 10:43:52;;;;;;;70.95;32.63;;;16.90;99.90;;;;;;6694534;88;20299;-74
2021/08/31 10:53:53;;;;;;;67.13;33.83;;;16.90;99.90;;;;;;6695033;88;20179;-73
2021/08/31 11:03:55;;;;;;;69.80;34.37;;;16.30;99.90;;;;;;6694502;88;20194;-74
2021/08/31 11:13:57;;;;;;;79.28;34.83;;;16.30;99.90;;;;;;6695189;88;20501;-74
2021/08/31 11:24:07;;;;;;;71.75;33.45;;;16.20;99.90;;;;;;6696564;88;20632;-74
2021/08/31 11:34:11;;;;;;;65.90;32.25;;;16.30;99.90;;;;;;6696431;88;20297;-73
2021/08/31 11:44:18;;;;;;;60.67;29.83;;;17.30;99.90;;;;;;6696220;88;20183;-74
2021/08/31 11:54:19;;;;;;;55.85;27.13;;;18.60;99.90;;;;;;6697685;88;20212;-75
2021/08/31 12:04:21;;;;;;;42.13;23.25;;;20.70;99.90;;;;;;6701658;88;20768;-75
2021/08/31 12:14:22;;;;;;;34.40;20.02;;;22.10;99.90;;;;;;6702013;88;20600;-76
2021/08/31 12:24:22;;;;;;;23.58;15.73;;;22.60;99.90;;;;;;6701482;88;20242;-76
2021/08/31 12:34:30;;;;;;;21.65;13.50;;;23.20;99.90;;;;;;6700416;88;20219;-75
2021/08/31 12:44:30;;;;;;;18.58;12.05;;;23.20;99.90;;;;;;6701894;88;20331;-74
2021/08/31 12:54:34;;;;;;;17.23;11.77;;;23.60;99.90;;;;;;6699780;88;20203;-75
2021/08/31 13:04:37;;;;;;;17.70;11.77;;;23.80;99.90;;;;;;6700798;88;20577;-75
2021/08/31 13:14:39;;;;;;;17.12;11.77;;;23.80;99.90;;;;;;6700269;88;20671;-76
2021/08/31 13:24:40;;;;;;;17.37;12.15;;;23.80;99.90;;;;;;6700119;88;20217;-76
2021/08/31 13:34:40;;;;;;;16.92;11.57;;;25.00;99.90;;;;;;6700325;88;20617;-76
2021/08/31 13:44:41;;;;;;;15.27;10.40;;;24.70;99.90;;;;;;6700683;88;20758;-76
2021/08/31 13:54:41;;;;;;;16.83;10.57;;;24.50;99.90;;;;;;6700856;88;20208;-76
2021/08/31 14:04:42;;;;;;;13.18;9.10;;;23.50;99.90;;;;;;6700380;88;20182;-73
2021/08/31 14:14:42;;;;;;;12.25;8.50;;;22.80;99.90;;;;;;6700026;88;20362;-76
2021/08/31 14:24:43;;;;;;;12.40;7.10;;;22.80;99.90;;;;;;6699466;88;20256;-76
2021/08/31 14:34:43;;;;;;;10.90;7.33;;;24.70;99.90;;;;;;6699373;88;20190;-76
2021/08/31 14:44:44;;;;;;;11.12;6.30;;;24.70;99.90;;;;;;6699624;88;20639;-75
2021/08/31 14:54:45;;;;;;;8.65;5.40;;;24.50;99.90;;;;;;6699084;88;20208;-74
2021/08/31 15:04:45;;;;;;;7.62;4.57;;;24.40;99.90;;;;;;6698959;88;20194;-75
2021/08/31 15:14:46;;;;;;;7.55;4.80;;;24.40;98.60;;;;;;6698166;88;20753;-75
2021/08/31 15:24:46;;;;;;;8.30;4.62;;;24.40;98.80;;;;;;6698058;88;20256;-76
2021/08/31 15:34:47;;;;;;;8.20;4.85;;;24.70;97.30;;;;;;6698235;88;20648;-76
2021/08/31 15:44:48;;;;;;;7.75;4.43;;;25.20;96.40;;;;;;6698501;88;20194;-75
2021/08/31 15:54:49;;;;;;;9.48;4.32;;;24.80;96.40;;;;;;6693899;88;20618;-75
2021/08/31 16:04:50;;;;;;;9.63;4.75;;;24.50;96.70;;;;;;6695229;88;20231;-76
2021/08/31 16:14:50;;;;;;;7.93;4.55;;;24.40;98.00;;;;;;6695942;88;20339;-75
2021/08/31 16:24:51;;;;;;;7.05;5.07;;;24.30;98.00;;;;;;6696796;88;20357;-76
2021/08/31 16:34:51;;;;;;;9.55;4.80;;;24.10;97.40;;;;;;6694360;88;20216;-76
2021/08/31 16:44:54;;;;;;;7.40;4.30;;;23.30;98.90;;;;;;6696416;88;20232;-76
2021/08/31 16:54:55;;;;;;;7.28;4.32;;;23.20;98.80;;;;;;6699625;88;20365;-77
2021/08/31 17:04:55;;;;;;;6.82;4.20;;;23.00;98.60;;;;;;6698002;88;20206;-76
2021/08/31 17:14:56;;;;;;;5.95;4.15;;;22.70;99.60;;;;;;6699304;88;20283;-76
2021/08/31 17:24:56;;;;;;;9.98;5.57;;;22.20;99.90;;;;;;6695624;88;20195;-76
2021/08/31 17:34:57;;;;;;;9.45;4.18;;;21.70;99.90;;;;;;6692704;88;20291;-76
2021/08/31 17:44:57;;;;;;;10.45;4.75;;;21.40;99.90;;;;;;6696334;88;20216;-76
2021/08/31 17:55:06;;;;;;;7.87;4.70;;;21.10;99.90;;;;;;6693491;88;20662;-76
2021/08/31 18:05:07;;;;;;;7.10;4.25;;;20.70;99.90;;;;;;6696691;88;20191;-76
2021/08/31 18:15:08;;;;;;;9.43;4.68;;;20.30;99.90;;;;;;6697937;88;20211;-76
2021/08/31 18:25:10;;;;;;;8.35;4.25;;;19.80;99.90;;;;;;6700956;88;20241;-78
2021/08/31 18:35:11;;;;;;;6.85;4.80;;;19.20;99.90;;;;;;6697466;88;20199;-77
2021/08/31 18:45:11;;;;;;;8.43;5.20;;;18.70;99.90;;;;;;6689280;88;20208;-77
2021/08/31 18:55:12;;;;;;;9.55;5.75;;;18.40;99.90;;;;;;6693984;88;20190;-75
2021/08/31 19:05:13;;;;;;;8.20;5.28;;;18.00;99.90;;;;;;6689867;88;20309;-75
2021/08/31 19:15:15;;;;;;;8.70;5.85;;;17.80;99.90;;;;;;6696858;88;20287;-77
2021/08/31 19:25:15;;;;;;;10.32;6.03;;;17.60;99.90;;;;;;6702327;88;20195;-76
2021/08/31 19:35:16;;;;;;;8.98;6.15;;;17.50;99.90;;;;;;6697590;88;20214;-76
2021/08/31 19:45:17;;;;;;;11.95;6.53;;;17.40;99.90;;;;;;6703578;88;21083;-76
2021/08/31 19:55:18;;;;;;;10.00;6.90;;;17.10;99.90;;;;;;6703956;88;20195;-74
2021/08/31 20:05:18;;;;;;;10.85;6.80;;;16.80;99.90;;;;;;6704072;88;20193;-77
2021/08/31 20:15:19;;;;;;;15.02;7.68;;;16.50;99.90;;;;;;6704866;88;20751;-77
2021/08/31 20:25:20;;;;;;;10.65;7.57;;;16.40;99.90;;;;;;6707198;88;20195;-76
2021/08/31 20:35:21;;;;;;;10.73;7.37;;;16.30;99.90;;;;;;6708091;88;20194;-77
2021/08/31 20:45:22;;;;;;;10.75;7.18;;;16.40;99.90;;;;;;6705293;88;20220;-77
2021/08/31 20:55:23;;;;;;;11.55;7.35;;;16.30;99.90;;;;;;6709063;88;20631;-76
2021/08/31 21:05:23;;;;;;;11.93;7.47;;;16.10;99.90;;;;;;6707698;88;20337;-76
2021/08/31 21:15:24;;;;;;;14.85;7.85;;;16.00;99.90;;;;;;6706919;88;20570;-77
2021/08/31 21:25:25;;;;;;;15.30;7.85;;;16.00;99.90;;;;;;6711331;88;21060;-76
2021/08/31 21:35:25;;;;;;;14.35;6.90;;;16.00;99.90;;;;;;6706092;88;20211;-74
2021/08/31 21:45:26;;;;;;;10.82;7.15;;;16.00;99.90;;;;;;6701328;88;20191;-75
2021/08/31 21:55:26;;;;;;;15.65;6.93;;;16.10;99.90;;;;;;6704691;88;20202;-77
2021/08/31 22:05:27;;;;;;;11.88;5.90;;;16.10;99.90;;;;;;6700949;88;20921;-75
2021/08/31 22:15:28;;;;;;;10.65;5.75;;;16.20;99.90;;;;;;6701878;88;20260;-76
2021/08/31 22:25:28;;;;;;;12.40;5.43;;;16.20;99.90;;;;;;6703032;88;20202;-75
2021/08/31 22:35:29;;;;;;;18.08;5.35;;;16.40;99.90;;;;;;6703097;88;20200;-76
2021/08/31 22:45:29;;;;;;;18.35;6.00;;;16.30;99.90;;;;;;6703675;88;20739;-75
2021/08/31 22:55:30;;;;;;;16.55;5.82;;;16.30;99.90;;;;;;6703133;88;20260;-77
2021/08/31 23:05:30;;;;;;;11.95;5.37;;;16.00;99.90;;;;;;6703525;88;20239;-76
2021/08/31 23:15:31;;;;;;;15.80;6.20;;;15.80;99.90;;;;;;6705561;88;20345;-75
2021/08/31 23:25:32;;;;;;;16.27;7.30;;;15.70;99.90;;;;;;6705533;88;20307;-75
2021/08/31 23:35:32;;;;;;;16.73;7.67;;;15.40;99.90;;;;;;6704463;88;20202;-76
2021/08/31 23:45:33;;;;;;;21.73;8.02;;;15.30;99.90;;;;;;6705796;88;20587;-76
2021/08/31 23:55:33;;;;;;;16.60;8.02;;;15.10;99.90;;;;;;6704677;88;20221;-77
